Blenker, Wisconsin
Current Conditions -  °F | °C
As of 6:54 PM on Tuesday 21 Oct 2014 (Local Time) from KMFI Reporting Station
Clear Clear  
Wind Chill: 46°   Ceiling: Unl
Heat Index: 46°   Visibility: 10mi
Dew Point: 35°   Wind: 3mph
Humidity: 66%   Direction: 130°SE
Pressure: 30.22"   Gusts: NA
Location:  44.61°N, 89.92°W
Report Text: KMFI 212354Z AUTO 13003KT 10SM CLR 08/02 A3022 RMK AO2 SLP244 T00780017 10106 20072 51002
Loading
Personal Weather Stations






























Interactive Weather Map
Tropical Storm Tracking
New forecast layout! Learn more

10-Day Weather Forecast

Advertisements
Track Severe Weather on mobile